createdAt,value
2023-01-25T00:00:01.787Z,97908.91
2023-01-25T00:02:31.504Z,97914.69
2023-01-25T00:04:58.146Z,97923.84
2023-01-25T00:07:24.849Z,97897.22
2023-01-25T00:09:51.463Z,97909.53
2023-01-25T00:12:20.868Z,97895.63
2023-01-25T00:14:47.429Z,97923.63
2023-01-25T00:17:14.110Z,97891.38
2023-01-25T00:19:43.782Z,97910.31
2023-01-25T00:22:10.475Z,97919.47
2023-01-25T00:24:37.187Z,97927.81
2023-01-25T00:27:03.958Z,97893.41
2023-01-25T00:29:31.682Z,97896.81
2023-01-25T00:32:02.165Z,97924.66
2023-01-25T00:34:29.803Z,97920.84
2023-01-25T00:37:01.433Z,97912.72
2023-01-25T00:39:28.691Z,97914.50
2023-01-25T00:41:55.663Z,97922.06
2023-01-25T00:44:23.289Z,97896.63
2023-01-25T00:46:52.214Z,97878.84
2023-01-25T00:49:24.886Z,97892.72
2023-01-25T00:51:52.648Z,97906.44
2023-01-25T00:54:20.417Z,97906.63
2023-01-25T00:56:47.319Z,97904.25
2023-01-25T00:59:14.909Z,97874.41
2023-01-25T01:01:42.340Z,97902.84
2023-01-25T01:04:09.295Z,97884.19
2023-01-25T01:06:37.743Z,97881.25
2023-01-25T01:09:06.473Z,97858.56
2023-01-25T01:11:33.779Z,97901.81
2023-01-25T01:14:00.413Z,97844.59
2023-01-25T01:16:27.148Z,97884.88
2023-01-25T01:18:54.308Z,97877.13
2023-01-25T01:21:21.706Z,97880.06
2023-01-25T01:23:48.813Z,97853.25
2023-01-25T01:26:19.420Z,97894.94
2023-01-25T01:28:46.629Z,97892.16
2023-01-25T01:31:18.261Z,97897.84
2023-01-25T01:33:53.944Z,97890.66
2023-01-25T01:36:23.498Z,97888.50
2023-01-25T01:38:50.322Z,97883.94
2023-01-25T01:41:17.476Z,97893.56
2023-01-25T01:43:45.035Z,97888.84
2023-01-25T01:46:23.218Z,97900.75
2023-01-25T01:49:01.410Z,97885.56
2023-01-25T01:51:47.060Z,97862.75
2023-01-25T01:54:24.192Z,97889.16
2023-01-25T01:57:16.322Z,97884.78
2023-01-25T01:59:50.883Z,97896.00
2023-01-25T02:02:17.601Z,97857.41
2023-01-25T02:04:48.796Z,97865.91
2023-01-25T02:07:21.148Z,97883.41
2023-01-25T02:09:50.451Z,97888.34
2023-01-25T02:12:18.791Z,97853.75
2023-01-25T02:14:52.883Z,97856.56
2023-01-25T02:17:24.359Z,97889.72
2023-01-25T02:20:00.839Z,97885.16
2023-01-25T02:22:40.840Z,97856.09
2023-01-25T02:25:11.475Z,97896.47
2023-01-25T02:27:46.607Z,97859.94
2023-01-25T02:30:13.489Z,97899.09
2023-01-25T02:32:43.110Z,97874.66
2023-01-25T02:35:22.582Z,97897.84
2023-01-25T02:37:50.698Z,97896.28
2023-01-25T02:40:18.780Z,97866.88
2023-01-25T02:42:46.533Z,97883.38
2023-01-25T02:45:18.206Z,97898.28
2023-01-25T02:47:45.642Z,97868.50
2023-01-25T02:50:14.961Z,97894.91
2023-01-25T02:52:41.759Z,97885.97
2023-01-25T02:55:09.814Z,97886.16
2023-01-25T02:57:38.752Z,97854.16
2023-01-25T03:00:07.227Z,97888.94
2023-01-25T03:02:34.100Z,97844.16
2023-01-25T03:05:00.763Z,97837.69
2023-01-25T03:07:27.965Z,97888.34
2023-01-25T03:09:55.731Z,97849.75
2023-01-25T03:12:23.483Z,97855.94
2023-01-25T03:14:50.182Z,97842.34
2023-01-25T03:17:18.479Z,97865.78
2023-01-25T03:19:45.933Z,97844.06
2023-01-25T03:22:12.559Z,97864.34
2023-01-25T03:24:42.874Z,97867.28
2023-01-25T03:27:14.340Z,97859.72
2023-01-25T03:29:47.434Z,97826.13
2023-01-25T03:32:19.090Z,97865.34
2023-01-25T03:34:45.759Z,97806.06
2023-01-25T03:37:13.655Z,97856.13
2023-01-25T03:39:40.835Z,97859.06
2023-01-25T03:42:07.977Z,97853.88
2023-01-25T03:44:34.632Z,97814.19
2023-01-25T03:47:01.409Z,97840.44
2023-01-25T03:49:35.179Z,97794.56
2023-01-25T03:52:03.301Z,97820.97
2023-01-25T03:54:36.742Z,97811.66
2023-01-25T03:57:03.537Z,97823.31
2023-01-25T03:59:33.318Z,97755.44
2023-01-25T04:01:59.986Z,97820.84
2023-01-25T04:04:26.703Z,97824.78
2023-01-25T04:06:53.700Z,97797.34
2023-01-25T04:09:23.041Z,97760.84
2023-01-25T04:11:52.538Z,97778.09
2023-01-25T04:14:31.818Z,97780.38
2023-01-25T04:17:08.356Z,97794.84
2023-01-25T04:19:42.102Z,97766.72
2023-01-25T04:22:12.984Z,97750.69
2023-01-25T04:24:39.753Z,97798.41
2023-01-25T04:27:06.644Z,97777.53
2023-01-25T04:29:41.783Z,97766.72
2023-01-25T04:32:14.338Z,97754.22
2023-01-25T04:34:41.100Z,97731.97
2023-01-25T04:37:12.674Z,97764.88
2023-01-25T04:39:49.943Z,97758.69
2023-01-25T04:42:16.851Z,97784.00
2023-01-25T04:44:46.279Z,97767.94
2023-01-25T04:47:13.383Z,97763.59
2023-01-25T04:49:40.108Z,97746.66
2023-01-25T04:52:07.034Z,97771.47
2023-01-25T04:54:34.104Z,97753.88
2023-01-25T04:57:01.067Z,97578.63
2023-01-25T04:59:27.990Z,97740.47
2023-01-25T05:01:55.129Z,97765.22
2023-01-25T05:04:21.730Z,97769.19
2023-01-25T05:06:50.025Z,97749.44
2023-01-25T05:09:17.731Z,97730.22
2023-01-25T05:11:45.466Z,97760.06
2023-01-25T05:14:20.465Z,97756.81
2023-01-25T05:16:47.584Z,97717.16
2023-01-25T05:19:14.796Z,97749.53
2023-01-25T05:21:59.343Z,97755.22
2023-01-25T05:24:45.209Z,97758.56
2023-01-25T05:27:17.420Z,97749.97
2023-01-25T05:29:53.251Z,97747.72
2023-01-25T05:32:23.876Z,97747.84
2023-01-25T05:34:50.921Z,97749.88
2023-01-25T05:37:20.575Z,97755.72
2023-01-25T05:39:52.388Z,97732.94
2023-01-25T05:42:19.371Z,97765.22
2023-01-25T05:44:47.923Z,97733.69
2023-01-25T05:47:17.761Z,97759.72
2023-01-25T05:49:44.872Z,97720.00
2023-01-25T05:52:17.658Z,97730.16
2023-01-25T05:54:44.535Z,97738.44
2023-01-25T05:57:16.441Z,97730.75
2023-01-25T05:59:43.891Z,97755.19
2023-01-25T06:02:13.155Z,97723.41
2023-01-25T06:04:40.870Z,97717.38
2023-01-25T06:07:09.065Z,97746.06
2023-01-25T06:09:36.349Z,97759.25
2023-01-25T06:12:04.086Z,97749.50
2023-01-25T06:14:30.679Z,97757.22
2023-01-25T06:16:57.930Z,97746.88
2023-01-25T06:19:24.463Z,97734.13
2023-01-25T06:22:00.139Z,97710.44
2023-01-25T06:24:26.834Z,97746.72
2023-01-25T06:26:53.446Z,97714.06
2023-01-25T06:29:20.195Z,97748.81
2023-01-25T06:31:46.845Z,97729.19
2023-01-25T06:34:13.453Z,97751.06
2023-01-25T06:36:42.406Z,97746.66
2023-01-25T06:39:09.336Z,97745.44
2023-01-25T06:41:36.064Z,97746.94
2023-01-25T06:44:03.021Z,97737.28
2023-01-25T06:46:32.108Z,97741.88
2023-01-25T06:48:58.728Z,97713.31
2023-01-25T06:51:25.340Z,97740.78
2023-01-25T06:53:52.001Z,97742.16
2023-01-25T06:56:22.055Z,97744.81
2023-01-25T06:58:49.503Z,97739.50
2023-01-25T07:01:19.634Z,97737.03
2023-01-25T07:03:51.398Z,97727.06
2023-01-25T07:06:18.909Z,97735.44
2023-01-25T07:08:45.642Z,97735.94
2023-01-25T07:11:14.002Z,97688.97
2023-01-25T07:13:42.162Z,97698.50
2023-01-25T07:16:13.320Z,97748.69
2023-01-25T07:18:40.562Z,97750.63
2023-01-25T07:21:16.119Z,97717.16
2023-01-25T07:23:43.074Z,97735.94
2023-01-25T07:26:18.631Z,97731.53
2023-01-25T07:28:46.353Z,97736.16
2023-01-25T07:31:13.512Z,97737.06
2023-01-25T07:33:40.168Z,97738.97
2023-01-25T07:36:09.107Z,97741.66
2023-01-25T07:38:36.688Z,97727.00
2023-01-25T07:41:03.833Z,97710.91
2023-01-25T07:43:30.587Z,97720.22
2023-01-25T07:46:05.400Z,97731.00
2023-01-25T07:48:33.187Z,97725.88
2023-01-25T07:51:23.833Z,97699.34
2023-01-25T07:53:55.615Z,97723.09
2023-01-25T07:56:24.845Z,97732.75
2023-01-25T07:58:56.738Z,97709.41
2023-01-25T08:01:25.552Z,97726.94
2023-01-25T08:03:53.107Z,97742.13
2023-01-25T08:06:30.662Z,97727.63
2023-01-25T08:08:58.719Z,97740.72
2023-01-25T08:11:28.277Z,97710.16
2023-01-25T08:13:55.703Z,97745.13
2023-01-25T08:16:25.902Z,97720.69
2023-01-25T08:18:55.138Z,97742.34
2023-01-25T08:21:24.317Z,97739.53
2023-01-25T08:23:51.829Z,97739.53
2023-01-25T08:26:18.635Z,97709.84
2023-01-25T08:28:45.368Z,97737.03
2023-01-25T08:31:18.725Z,97686.56
2023-01-25T08:33:46.778Z,97724.69
2023-01-25T08:36:15.070Z,97722.09
2023-01-25T08:38:41.775Z,97692.91
2023-01-25T08:41:17.834Z,97715.09
2023-01-25T08:43:45.848Z,97709.00
2023-01-25T08:46:13.748Z,97715.97
2023-01-25T08:48:40.711Z,97711.72
2023-01-25T08:51:15.961Z,97711.00
2023-01-25T08:53:43.274Z,97702.00
2023-01-25T08:56:12.503Z,97704.31
2023-01-25T08:58:41.473Z,97709.00
2023-01-25T09:01:10.805Z,97694.56
2023-01-25T09:03:39.925Z,97699.94
2023-01-25T09:06:07.692Z,97676.84
2023-01-25T09:08:35.133Z,97678.53
2023-01-25T09:11:21.875Z,97695.66
2023-01-25T09:13:49.585Z,97703.75
2023-01-25T09:16:19.930Z,97687.84
2023-01-25T09:18:49.748Z,97653.75
2023-01-25T09:21:18.768Z,97693.66
2023-01-25T09:24:05.364Z,97683.13
2023-01-25T09:26:34.581Z,97703.09
2023-01-25T09:29:01.331Z,97677.34
2023-01-25T09:31:29.369Z,97681.81
2023-01-25T09:33:59.305Z,97685.91
2023-01-25T09:36:26.168Z,97703.34
2023-01-25T09:38:53.109Z,97694.25
2023-01-25T09:41:51.658Z,97700.53
2023-01-25T09:44:31.503Z,97696.00
2023-01-25T09:47:17.944Z,97686.56
2023-01-25T09:49:44.536Z,97686.03
2023-01-25T09:52:32.600Z,97686.00
2023-01-25T09:54:59.440Z,97682.13
2023-01-25T09:57:37.448Z,97675.63
2023-01-25T10:00:17.980Z,97673.28
2023-01-25T10:03:10.550Z,97664.03
2023-01-25T10:05:46.841Z,97669.38
2023-01-25T10:08:44.463Z,97671.47
2023-01-25T10:11:21.679Z,97670.59
2023-01-25T10:13:48.552Z,97635.28
2023-01-25T10:16:41.189Z,97655.19
2023-01-25T10:19:26.106Z,97585.09
2023-01-25T10:22:01.700Z,97633.34
2023-01-25T10:24:52.203Z,97657.19
2023-01-25T10:27:34.084Z,97658.53
2023-01-25T10:30:26.442Z,97660.88
2023-01-25T10:32:57.380Z,97651.06
2023-01-25T10:35:35.869Z,97628.31
2023-01-25T10:38:13.662Z,97611.16
2023-01-25T10:40:46.669Z,97630.91
2023-01-25T10:43:22.453Z,97624.34
2023-01-25T10:45:50.235Z,97619.09
2023-01-25T10:48:28.382Z,97592.44
2023-01-25T10:50:57.460Z,97612.94
2023-01-25T10:53:24.263Z,97611.19
2023-01-25T10:56:09.294Z,97610.19
2023-01-25T10:58:37.168Z,97581.06
2023-01-25T11:01:13.734Z,97604.47
2023-01-25T11:03:46.528Z,97602.09
2023-01-25T11:06:13.228Z,97571.84
2023-01-25T11:08:43.047Z,97608.34
2023-01-25T11:11:31.624Z,97579.56
2023-01-25T11:13:58.249Z,97565.28
2023-01-25T11:16:31.888Z,97596.53
2023-01-25T11:19:00.719Z,97594.56
2023-01-25T11:21:30.271Z,97564.41
2023-01-25T11:24:23.283Z,97594.78
2023-01-25T11:26:49.875Z,97567.66
2023-01-25T11:29:22.332Z,97552.22
2023-01-25T11:31:53.824Z,97578.88
2023-01-25T11:34:25.608Z,97559.69
2023-01-25T11:37:06.557Z,97539.44
2023-01-25T11:39:55.074Z,97570.56
2023-01-25T11:42:30.728Z,97567.34
2023-01-25T11:45:03.527Z,97555.63
2023-01-25T11:47:57.185Z,97552.19
2023-01-25T11:50:45.305Z,97531.72
2023-01-25T11:53:17.953Z,97550.38
2023-01-25T11:56:16.647Z,97541.09
2023-01-25T11:58:52.009Z,97535.03
2023-01-25T12:01:24.640Z,97526.06
2023-01-25T12:04:25.217Z,97506.91
2023-01-25T12:07:06.398Z,97512.69
2023-01-25T12:09:59.195Z,97496.72
2023-01-25T12:12:43.920Z,97494.69
2023-01-25T12:15:21.143Z,97491.66
2023-01-25T12:18:12.629Z,97482.38
2023-01-25T12:21:00.296Z,97479.25
2023-01-25T12:24:04.843Z,97473.84
2023-01-25T12:26:40.530Z,97466.06
2023-01-25T12:29:16.202Z,97469.88
2023-01-25T12:31:51.690Z,97437.31
2023-01-25T12:34:25.300Z,97435.81
2023-01-25T12:36:51.978Z,97449.97
2023-01-25T12:39:33.694Z,97451.09
2023-01-25T12:42:07.641Z,97445.03
2023-01-25T12:44:44.064Z,97432.28
2023-01-25T12:47:48.515Z,97428.13
2023-01-25T12:50:28.780Z,97425.63
2023-01-25T12:53:21.520Z,97393.13
2023-01-25T12:55:49.661Z,97409.88
2023-01-25T12:58:32.903Z,97409.63
2023-01-25T13:01:30.912Z,97400.56
2023-01-25T13:04:27.293Z,97400.09
2023-01-25T13:07:03.670Z,97400.53
2023-01-25T13:09:42.995Z,97367.53
2023-01-25T13:12:11.919Z,97367.88
2023-01-25T13:14:42.305Z,97387.84
2023-01-25T13:17:38.253Z,97395.28
2023-01-25T13:20:39.083Z,97384.72
2023-01-25T13:23:45.971Z,97381.84
2023-01-25T13:26:24.733Z,97378.25
2023-01-25T13:28:52.465Z,97375.88
2023-01-25T13:31:51.163Z,97376.22
2023-01-25T13:34:37.398Z,97374.31
2023-01-25T13:37:15.893Z,97366.53
2023-01-25T13:39:44.390Z,97358.84
2023-01-25T13:42:10.926Z,97367.44
2023-01-25T13:44:45.211Z,97341.94
2023-01-25T13:47:14.249Z,97355.16
2023-01-25T13:49:41.995Z,97355.25
2023-01-25T13:52:15.897Z,97355.47
2023-01-25T13:54:47.035Z,97321.72
2023-01-25T13:57:19.589Z,97318.78
2023-01-25T13:59:46.539Z,97299.28
2023-01-25T14:02:23.440Z,97319.72
2023-01-25T14:04:51.768Z,97321.06
2023-01-25T14:07:21.371Z,97328.84
2023-01-25T14:09:49.485Z,97314.84
2023-01-25T14:12:40.635Z,97327.28
2023-01-25T14:15:30.208Z,97332.09
2023-01-25T14:18:19.223Z,97325.91
2023-01-25T14:20:48.471Z,97318.34
2023-01-25T14:23:30.863Z,97299.81
2023-01-25T14:25:59.271Z,97288.09
2023-01-25T14:28:26.860Z,97297.69
2023-01-25T14:30:56.478Z,97299.63
2023-01-25T14:33:29.704Z,97315.97
2023-01-25T14:36:16.121Z,97312.25
2023-01-25T14:38:50.803Z,97316.31
2023-01-25T14:41:34.677Z,97310.88
2023-01-25T14:44:10.580Z,97288.09
2023-01-25T14:46:38.580Z,97306.25
2023-01-25T14:49:14.967Z,97299.63
2023-01-25T14:51:59.778Z,97278.75
2023-01-25T14:54:29.422Z,97287.66
2023-01-25T14:57:05.231Z,97295.47
2023-01-25T14:59:41.377Z,97242.22
2023-01-25T15:02:32.917Z,97271.75
2023-01-25T15:05:14.677Z,97271.66
2023-01-25T15:07:54.300Z,97272.44
2023-01-25T15:10:29.795Z,97288.59
2023-01-25T15:13:15.549Z,97294.50
2023-01-25T15:15:57.740Z,97241.28
2023-01-25T15:18:53.914Z,97242.91
2023-01-25T15:21:24.649Z,97275.88
2023-01-25T15:23:52.411Z,97264.47
2023-01-25T15:26:23.391Z,97267.94
2023-01-25T15:28:52.309Z,97270.22
2023-01-25T15:31:23.463Z,97260.88
2023-01-25T15:33:50.466Z,97255.34
2023-01-25T15:36:18.548Z,97256.78
2023-01-25T15:38:45.946Z,97222.97
2023-01-25T15:41:13.799Z,97242.50
2023-01-25T15:43:40.958Z,97233.38
2023-01-25T15:46:23.905Z,97208.78
2023-01-25T15:48:51.499Z,97232.34
2023-01-25T15:51:19.121Z,97236.59
2023-01-25T15:53:46.836Z,97229.38
2023-01-25T15:56:19.503Z,97230.63
2023-01-25T15:58:51.544Z,97237.31
2023-01-25T16:01:18.600Z,97231.31
2023-01-25T16:03:45.334Z,97231.19
2023-01-25T16:06:40.649Z,97228.25
2023-01-25T16:09:19.331Z,97232.34
2023-01-25T16:11:48.168Z,97232.22
2023-01-25T16:14:14.821Z,97225.47
2023-01-25T16:16:49.270Z,97205.06
2023-01-25T16:19:18.327Z,97216.34
2023-01-25T16:21:45.128Z,97196.38
2023-01-25T16:24:11.967Z,97179.38
2023-01-25T16:26:44.214Z,97190.75
2023-01-25T16:29:11.545Z,97176.19
2023-01-25T16:31:38.328Z,97209.13
2023-01-25T16:34:05.083Z,97178.34
2023-01-25T16:36:32.960Z,97195.38
2023-01-25T16:39:13.369Z,97202.91
2023-01-25T16:41:39.948Z,97168.88
2023-01-25T16:44:06.712Z,97205.50
2023-01-25T16:46:33.553Z,97190.75
2023-01-25T16:49:00.496Z,97190.19
2023-01-25T16:51:28.433Z,97205.72
2023-01-25T16:53:58.035Z,97191.97
2023-01-25T16:56:29.673Z,97197.63
2023-01-25T16:59:00.533Z,97188.81
2023-01-25T17:01:27.599Z,97155.94
2023-01-25T17:03:55.897Z,97185.31
2023-01-25T17:06:26.799Z,97181.59
2023-01-25T17:08:57.313Z,97137.13
2023-01-25T17:11:25.228Z,97179.25
2023-01-25T17:13:54.554Z,97154.81
2023-01-25T17:16:23.226Z,97171.38
2023-01-25T17:18:54.943Z,97136.56
2023-01-25T17:21:22.673Z,97146.72
2023-01-25T17:23:50.169Z,97171.25
2023-01-25T17:26:19.499Z,97153.25
2023-01-25T17:28:46.973Z,97164.38
2023-01-25T17:31:14.637Z,97161.47
2023-01-25T17:33:41.336Z,97153.34
2023-01-25T17:36:09.266Z,97136.00
2023-01-25T17:38:35.925Z,97160.47
2023-01-25T17:41:05.441Z,97163.47
2023-01-25T17:43:34.409Z,97121.81
2023-01-25T17:46:14.729Z,97155.50
2023-01-25T17:48:41.631Z,97149.41
2023-01-25T17:51:11.236Z,97117.44
2023-01-25T17:53:37.851Z,97114.25
2023-01-25T17:56:05.659Z,97138.00
2023-01-25T17:58:35.410Z,97141.59
2023-01-25T18:01:13.750Z,97062.56
2023-01-25T18:03:41.789Z,97103.09
2023-01-25T18:06:09.550Z,97121.44
2023-01-25T18:08:44.850Z,97064.84
2023-01-25T18:11:15.302Z,97129.31
2023-01-25T18:13:45.373Z,97126.16
2023-01-25T18:16:12.990Z,97127.16
2023-01-25T18:18:42.065Z,97093.41
2023-01-25T18:21:11.674Z,97127.41
2023-01-25T18:23:39.964Z,97122.13
2023-01-25T18:26:16.014Z,97115.13
2023-01-25T18:28:42.652Z,97095.06
2023-01-25T18:31:10.489Z,97109.69
2023-01-25T18:33:38.791Z,97105.16
2023-01-25T18:36:05.855Z,97087.53
2023-01-25T18:38:35.138Z,97093.66
2023-01-25T18:41:01.746Z,97110.75
2023-01-25T18:43:28.416Z,97100.06
2023-01-25T18:45:56.881Z,97066.19
2023-01-25T18:48:30.592Z,97105.81
2023-01-25T18:51:12.816Z,97090.41
2023-01-25T18:53:42.508Z,97093.22
2023-01-25T18:56:13.257Z,97095.66
2023-01-25T18:58:40.120Z,97098.84
2023-01-25T19:01:18.655Z,97082.53
2023-01-25T19:03:47.046Z,97072.50
2023-01-25T19:06:15.090Z,97082.50
2023-01-25T19:08:44.137Z,97028.25
2023-01-25T19:11:13.659Z,97069.78
2023-01-25T19:13:42.221Z,97072.28
2023-01-25T19:16:15.550Z,97046.72
2023-01-25T19:18:46.988Z,97070.81
2023-01-25T19:21:22.488Z,97068.44
2023-01-25T19:23:49.747Z,97047.19
2023-01-25T19:26:18.282Z,97065.28
2023-01-25T19:28:46.019Z,97030.38
2023-01-25T19:31:15.951Z,97059.00
2023-01-25T19:33:43.072Z,97020.75
2023-01-25T19:36:18.308Z,97013.34
2023-01-25T19:38:46.832Z,97039.78
2023-01-25T19:41:15.939Z,97049.09
2023-01-25T19:43:43.591Z,97043.72
2023-01-25T19:46:12.488Z,97043.50
2023-01-25T19:48:40.825Z,97035.47
2023-01-25T19:51:15.308Z,97024.22
2023-01-25T19:53:47.426Z,97041.31
2023-01-25T19:56:16.376Z,97024.94
2023-01-25T19:58:44.334Z,97037.66
2023-01-25T20:01:14.051Z,97027.31
2023-01-25T20:03:41.657Z,97030.91
2023-01-25T20:06:09.444Z,96974.44
2023-01-25T20:08:39.098Z,97013.81
2023-01-25T20:11:17.520Z,96996.03
2023-01-25T20:13:44.246Z,96984.00
2023-01-25T20:16:12.224Z,96992.19
2023-01-25T20:18:39.190Z,96982.63
2023-01-25T20:21:09.957Z,96988.22
2023-01-25T20:23:39.194Z,97000.69
2023-01-25T20:26:08.672Z,96966.19
2023-01-25T20:28:36.813Z,97013.00
2023-01-25T20:31:04.584Z,96991.38
2023-01-25T20:33:34.691Z,96985.41
2023-01-25T20:36:02.527Z,96945.50
2023-01-25T20:38:33.484Z,96997.78
2023-01-25T20:41:05.434Z,96964.06
2023-01-25T20:43:32.375Z,96957.97
2023-01-25T20:46:00.103Z,96986.88
2023-01-25T20:48:28.101Z,96976.78
2023-01-25T20:51:02.339Z,96961.53
2023-01-25T20:53:30.048Z,96941.81
2023-01-25T20:56:00.112Z,96928.88
2023-01-25T20:58:28.200Z,96949.25
2023-01-25T21:00:55.725Z,96972.41
2023-01-25T21:03:22.921Z,96970.13
2023-01-25T21:05:54.698Z,96963.91
2023-01-25T21:08:22.178Z,96939.72
2023-01-25T21:10:50.025Z,96956.81
2023-01-25T21:13:17.348Z,96950.59
2023-01-25T21:15:44.035Z,96921.44
2023-01-25T21:18:10.766Z,96953.94
2023-01-25T21:20:37.407Z,96915.72
2023-01-25T21:23:04.141Z,96957.94
2023-01-25T21:25:30.820Z,96953.00
2023-01-25T21:27:57.949Z,96920.00
2023-01-25T21:30:24.565Z,96928.44
2023-01-25T21:32:51.124Z,96904.13
2023-01-25T21:35:17.772Z,96952.13
2023-01-25T21:37:46.179Z,96945.19
2023-01-25T21:40:13.696Z,96904.31
2023-01-25T21:42:40.363Z,96896.47
2023-01-25T21:45:27.510Z,96919.66
2023-01-25T21:47:58.780Z,96914.50
2023-01-25T21:50:45.090Z,96897.22
2023-01-25T21:53:11.661Z,96903.63
2023-01-25T21:55:38.259Z,96891.13
2023-01-25T21:58:04.900Z,96869.44
2023-01-25T22:00:31.655Z,96876.41
2023-01-25T22:02:58.292Z,96907.38
2023-01-25T22:05:24.869Z,96880.78
2023-01-25T22:07:51.497Z,96880.28
2023-01-25T22:10:18.381Z,96908.66
2023-01-25T22:12:45.755Z,96862.25
2023-01-25T22:15:12.352Z,96867.75
2023-01-25T22:17:38.941Z,96819.66
2023-01-25T22:20:06.230Z,96877.28
2023-01-25T22:22:32.809Z,96862.50
2023-01-25T22:24:59.488Z,96895.53
2023-01-25T22:27:57.036Z,96897.53
2023-01-25T22:30:23.675Z,96882.13
2023-01-25T22:32:50.279Z,96871.41
2023-01-25T22:35:16.914Z,96858.16
2023-01-25T22:37:43.528Z,96849.91
2023-01-25T22:40:11.065Z,96865.03
2023-01-25T22:42:37.816Z,96852.78
2023-01-25T22:45:05.067Z,96831.00
2023-01-25T22:47:31.615Z,96828.88
2023-01-25T22:49:58.211Z,96855.38
2023-01-25T22:52:24.861Z,96825.59
2023-01-25T22:54:51.803Z,96820.91
2023-01-25T22:57:18.661Z,96836.47
2023-01-25T22:59:45.224Z,96805.59
2023-01-25T23:02:11.827Z,96776.66
2023-01-25T23:04:38.473Z,96843.75
2023-01-25T23:07:12.269Z,96795.81
2023-01-25T23:09:40.328Z,96855.53
2023-01-25T23:12:07.139Z,96852.75
2023-01-25T23:14:51.958Z,96826.78
2023-01-25T23:17:42.095Z,96844.25
2023-01-25T23:20:11.107Z,96841.78
2023-01-25T23:22:37.983Z,96800.78
2023-01-25T23:25:06.119Z,96834.03
2023-01-25T23:27:32.914Z,96807.38
2023-01-25T23:29:59.568Z,96796.72
2023-01-25T23:32:26.198Z,96827.38
2023-01-25T23:34:53.251Z,96805.28
2023-01-25T23:37:21.896Z,96808.97
2023-01-25T23:39:50.235Z,96820.09
2023-01-25T23:42:19.149Z,96790.16
2023-01-25T23:44:45.830Z,96804.56
2023-01-25T23:47:12.440Z,96767.63
2023-01-25T23:49:39.203Z,96790.56
2023-01-25T23:52:05.786Z,96716.91
2023-01-25T23:54:32.423Z,96765.88
2023-01-25T23:56:59.058Z,96764.16
2023-01-25T23:59:25.701Z,96789.63
